createdAt,value
2023-05-08T01:40:04.173Z,91.44
2023-05-08T01:41:01.572Z,91.44
2023-05-08T01:42:01.516Z,91.74
2023-05-08T01:43:01.443Z,91.89
2023-05-08T01:44:01.686Z,91.89
2023-05-08T01:45:01.653Z,91.89
2023-05-08T01:46:01.373Z,91.78
2023-05-08T01:47:02.217Z,91.78
2023-05-08T01:48:02.229Z,91.68
2023-05-08T01:49:01.321Z,91.89
2023-05-08T01:50:01.464Z,91.78
2023-05-08T01:51:01.235Z,91.89
2023-05-08T01:52:01.941Z,91.78
2023-05-08T01:53:01.636Z,92.10
2023-05-08T01:54:01.290Z,91.89
2023-05-08T01:55:01.633Z,91.89
2023-05-08T01:56:02.986Z,91.99
2023-05-08T01:57:02.427Z,91.78
2023-05-08T01:58:01.307Z,92.10
2023-05-08T01:59:01.391Z,91.99
2023-05-08T02:00:02.659Z,92.10
2023-05-08T02:01:01.264Z,92.20
2023-05-08T02:02:04.031Z,92.50
2023-05-08T02:03:04.664Z,92.50
2023-05-08T02:04:02.249Z,92.30
2023-05-08T02:05:01.928Z,92.82
2023-05-08T02:06:01.362Z,92.82
2023-05-08T02:07:02.929Z,92.71
2023-05-08T02:08:01.590Z,92.92
2023-05-08T02:09:01.423Z,93.02
2023-05-08T02:10:01.644Z,92.92
2023-05-08T02:11:02.083Z,92.92
2023-05-08T02:12:01.298Z,93.23
2023-05-08T02:13:01.857Z,93.02
2023-05-08T02:14:01.920Z,93.12
2023-05-08T02:15:01.477Z,93.33
2023-05-08T02:16:01.553Z,93.84
2023-05-08T02:17:01.230Z,93.54
2023-05-08T02:18:01.153Z,93.54
2023-05-08T02:19:01.251Z,93.54
2023-05-08T02:20:01.271Z,93.54
2023-05-08T02:21:01.524Z,93.84
2023-05-08T02:22:01.179Z,94.05
2023-05-08T02:23:00.827Z,93.48
2023-05-08T02:24:01.273Z,93.48
2023-05-08T02:25:00.787Z,93.58
2023-05-08T02:26:01.699Z,93.79
2023-05-08T02:27:01.543Z,93.99
2023-05-08T02:28:00.952Z,93.88
2023-05-08T02:29:01.609Z,93.88
2023-05-08T02:30:01.749Z,93.99
2023-05-08T02:31:01.209Z,94.20
2023-05-08T02:32:01.605Z,94.34
2023-05-08T02:33:01.102Z,94.34
2023-05-08T02:34:00.923Z,94.55
2023-05-08T02:35:03.538Z,94.76
2023-05-08T02:36:00.738Z,94.85
2023-05-08T02:37:01.593Z,94.96
2023-05-08T02:38:01.352Z,95.17
2023-05-08T02:39:01.423Z,95.27
2023-05-08T02:40:01.658Z,95.27
2023-05-08T02:41:01.354Z,95.37
2023-05-08T02:42:01.477Z,95.37
2023-05-08T02:43:00.878Z,95.48
2023-05-08T02:44:00.887Z,95.37
2023-05-08T02:45:01.075Z,95.48
2023-05-08T02:46:02.071Z,95.48
2023-05-08T02:47:00.727Z,95.58
2023-05-08T02:48:01.636Z,95.83
2023-05-08T02:49:00.771Z,95.62
2023-05-08T02:50:00.935Z,95.78
2023-05-08T02:51:00.432Z,96.24
2023-05-08T02:52:01.459Z,96.03
2023-05-08T02:53:00.682Z,96.14
2023-05-08T02:54:00.375Z,96.03
2023-05-08T02:55:00.945Z,96.34
2023-05-08T02:56:02.030Z,96.24
2023-05-08T02:57:01.585Z,96.45
2023-05-08T02:58:01.308Z,96.75
2023-05-08T02:59:00.388Z,96.55
2023-05-08T03:00:00.310Z,96.14
2023-05-08T03:01:00.998Z,96.34
2023-05-08T03:02:00.282Z,96.24
2023-05-08T03:03:01.125Z,96.24
2023-05-08T03:04:00.317Z,96.24
2023-05-08T03:05:01.118Z,96.34
2023-05-08T03:06:01.257Z,96.45
2023-05-08T03:07:00.284Z,96.49
2023-05-08T03:08:00.188Z,96.59
2023-05-08T03:09:00.362Z,96.70
2023-05-08T03:10:00.743Z,96.70
2023-05-08T03:11:00.339Z,96.91
2023-05-08T03:12:00.563Z,96.91
2023-05-08T03:13:00.266Z,97.01
2023-05-08T03:14:00.725Z,97.01
2023-05-08T03:15:01.410Z,97.16
2023-05-08T03:16:00.443Z,97.26
2023-05-08T03:17:00.276Z,97.21
2023-05-08T03:18:00.487Z,97.21
2023-05-08T03:19:00.295Z,97.11
2023-05-08T03:20:00.617Z,97.11
2023-05-08T03:21:00.055Z,97.01
2023-05-08T03:22:00.601Z,97.01
2023-05-08T03:22:59.986Z,97.01
2023-05-08T03:24:00.928Z,96.91
2023-05-08T03:25:00.451Z,96.91
2023-05-08T03:26:01.694Z,97.01
2023-05-08T03:27:00.148Z,97.01
2023-05-08T03:28:00.216Z,97.11
2023-05-08T03:29:00.016Z,97.26
2023-05-08T03:30:00.371Z,97.36
2023-05-08T03:31:00.047Z,97.47
2023-05-08T03:32:01.086Z,97.56
2023-05-08T03:33:00.437Z,97.56
2023-05-08T03:34:00.064Z,97.56
2023-05-08T03:34:59.925Z,97.67
2023-05-08T03:36:00.235Z,97.77
2023-05-08T03:37:00.050Z,97.67
2023-05-08T03:38:00.043Z,97.77
2023-05-08T03:39:00.288Z,97.77
2023-05-08T03:40:00.323Z,97.88
2023-05-08T03:41:00.205Z,97.77
2023-05-08T03:42:00.009Z,97.67
2023-05-08T03:42:59.862Z,97.67
2023-05-08T03:43:59.802Z,97.67
2023-05-08T03:44:59.834Z,97.56
2023-05-08T03:45:59.791Z,97.47
2023-05-08T03:46:59.739Z,97.47
2023-05-08T03:47:59.825Z,97.56
2023-05-08T03:48:59.714Z,97.56
2023-05-08T03:49:59.936Z,97.56
2023-05-08T03:50:59.622Z,97.56
2023-05-08T03:51:59.902Z,97.56
2023-05-08T03:53:01.015Z,97.67
2023-05-08T03:54:00.038Z,97.67
2023-05-08T03:55:00.341Z,97.77
2023-05-08T03:56:01.054Z,97.77
2023-05-08T03:56:59.814Z,97.77
2023-05-08T03:58:00.023Z,97.67
2023-05-08T03:58:59.824Z,97.77
2023-05-08T03:59:59.982Z,97.88
2023-05-08T04:01:00.010Z,97.98
2023-05-08T04:02:00.551Z,97.88
2023-05-08T04:02:59.989Z,97.77
2023-05-08T04:04:00.437Z,97.67
2023-05-08T04:04:59.730Z,97.77
2023-05-08T04:06:01.212Z,97.67
2023-05-08T04:06:59.510Z,97.88
2023-05-08T04:07:59.558Z,97.98
2023-05-08T04:08:59.975Z,97.88
2023-05-08T04:10:00.036Z,97.88
2023-05-08T04:11:00.254Z,97.88
2023-05-08T04:11:59.382Z,97.88
2023-05-08T04:13:00.404Z,97.77
2023-05-08T04:13:59.407Z,97.73
2023-05-08T04:14:59.338Z,97.73
2023-05-08T04:15:59.920Z,97.63
2023-05-08T04:16:59.991Z,97.63
2023-05-08T04:17:59.509Z,97.52
2023-05-08T04:18:59.534Z,97.42
2023-05-08T04:20:00.165Z,97.42
2023-05-08T04:20:59.457Z,97.31
2023-05-08T04:21:59.934Z,97.31
2023-05-08T04:22:59.667Z,97.31
2023-05-08T04:24:00.001Z,97.21
2023-05-08T04:24:59.239Z,97.31
2023-05-08T04:25:59.878Z,97.31
2023-05-08T04:26:59.969Z,97.27
2023-05-08T04:27:59.625Z,97.17
2023-05-08T04:29:00.760Z,96.86
2023-05-08T04:29:59.590Z,96.96
2023-05-08T04:31:00.235Z,96.96
2023-05-08T04:31:59.866Z,96.96
2023-05-08T04:32:59.249Z,96.96
2023-05-08T04:33:59.040Z,96.96
2023-05-08T04:34:59.546Z,96.86
2023-05-08T04:36:00.312Z,96.86
2023-05-08T04:36:59.085Z,96.75
2023-05-08T04:37:59.155Z,96.66
2023-05-08T04:38:59.414Z,96.45
2023-05-08T04:39:59.301Z,96.34
2023-05-08T04:40:59.285Z,96.34
2023-05-08T04:41:58.912Z,96.09
2023-05-08T04:42:59.040Z,96.09
2023-05-08T04:43:58.892Z,95.99
2023-05-08T04:44:58.965Z,95.99
2023-05-08T04:45:58.895Z,95.89
2023-05-08T04:46:59.155Z,95.89
2023-05-08T04:47:58.938Z,95.78
2023-05-08T04:48:59.556Z,95.68
2023-05-08T04:50:02.234Z,95.58
2023-05-08T04:50:58.741Z,95.43
2023-05-08T04:51:58.711Z,95.53
2023-05-08T04:52:59.724Z,95.64
2023-05-08T04:53:59.585Z,95.43
2023-05-08T04:54:58.810Z,95.02
2023-05-08T04:55:59.022Z,95.12
2023-05-08T04:56:59.231Z,95.12
2023-05-08T04:57:59.144Z,94.71
2023-05-08T04:58:59.021Z,94.56
2023-05-08T04:59:58.768Z,94.67
2023-05-08T05:00:59.070Z,94.67
2023-05-08T05:01:58.639Z,94.15
2023-05-08T05:02:59.622Z,93.95
2023-05-08T05:03:58.593Z,93.74
2023-05-08T05:04:58.849Z,93.43
2023-05-08T05:05:59.451Z,93.49
2023-05-08T05:06:58.572Z,93.29
2023-05-08T05:07:58.567Z,93.39
2023-05-08T05:08:58.497Z,92.97
2023-05-08T05:09:59.193Z,92.57
2023-05-08T05:10:59.228Z,92.46
2023-05-08T05:11:58.950Z,92.25
2023-05-08T05:12:58.477Z,91.80
2023-05-08T05:13:59.199Z,91.39
2023-05-08T05:14:58.646Z,91.60
2023-05-08T05:15:58.711Z,90.83
2023-05-08T05:16:58.409Z,90.32
2023-05-08T05:17:59.211Z,90.32
2023-05-08T05:18:58.401Z,90.32
2023-05-08T05:19:58.403Z,90.53
2023-05-08T05:20:59.042Z,90.88
2023-05-08T05:22:02.744Z,91.39
2023-05-08T05:22:59.162Z,91.19
2023-05-08T05:23:59.134Z,90.88
2023-05-08T05:24:58.520Z,90.88
2023-05-08T05:25:59.028Z,91.08
2023-05-08T05:26:58.336Z,91.39
2023-05-08T05:27:58.298Z,91.29
2023-05-08T05:28:58.820Z,91.29
2023-05-08T05:29:58.271Z,91.60
2023-05-08T05:30:58.372Z,91.19
2023-05-08T05:31:58.638Z,90.94
2023-05-08T05:32:58.377Z,91.14
2023-05-08T05:33:58.100Z,90.12
2023-05-08T05:34:58.270Z,89.87
2023-05-08T05:35:58.121Z,89.56
2023-05-08T05:36:58.191Z,88.64
2023-05-08T05:37:58.456Z,88.39
2023-05-08T05:38:58.375Z,87.67
2023-05-08T05:39:58.526Z,87.43
2023-05-08T05:40:58.522Z,87.53
2023-05-08T05:41:58.298Z,86.66
2023-05-08T05:42:58.292Z,86.05
2023-05-08T05:43:58.148Z,85.91
2023-05-08T05:44:57.988Z,85.05
2023-05-08T05:45:58.148Z,85.05
2023-05-08T05:46:58.801Z,84.29
2023-05-08T05:47:58.265Z,84.09
2023-05-08T05:48:58.197Z,83.74
2023-05-08T05:49:58.851Z,83.13
2023-05-08T05:50:58.066Z,81.96
2023-05-08T05:51:58.044Z,81.35
2023-05-08T05:52:57.888Z,81.56
2023-05-08T05:53:58.240Z,81.10
2023-05-08T05:54:57.844Z,80.69
2023-05-08T05:55:58.244Z,80.80
2023-05-08T05:56:57.870Z,80.35
2023-05-08T05:57:58.041Z,80.35
2023-05-08T05:58:58.194Z,79.64
2023-05-08T05:59:57.785Z,79.23
2023-05-08T06:00:57.940Z,79.43
2023-05-08T06:01:57.864Z,79.09
2023-05-08T06:02:58.113Z,78.68
2023-05-08T06:03:57.974Z,78.48
2023-05-08T06:04:58.001Z,78.58
2023-05-08T06:05:57.817Z,78.64
2023-05-08T06:06:57.846Z,78.34
2023-05-08T06:07:57.707Z,78.41
2023-05-08T06:08:58.235Z,77.69
2023-05-08T06:09:57.899Z,77.25
2023-05-08T06:10:57.666Z,76.73
2023-05-08T06:11:57.876Z,76.90
2023-05-08T06:12:57.672Z,75.68
2023-05-08T06:13:57.631Z,75.48
2023-05-08T06:14:57.628Z,75.68
2023-05-08T06:15:58.154Z,75.16
2023-05-08T06:16:57.764Z,74.96
2023-05-08T06:17:57.671Z,75.54
2023-05-08T06:18:57.743Z,75.34
2023-05-08T06:19:57.645Z,74.69
2023-05-08T06:20:58.245Z,74.69
2023-05-08T06:21:58.047Z,73.94
2023-05-08T06:22:57.496Z,73.50
2023-05-08T06:23:57.507Z,73.02
2023-05-08T06:24:57.469Z,73.10
2023-05-08T06:25:57.514Z,73.10
2023-05-08T06:26:57.459Z,73.47
2023-05-08T06:27:57.779Z,71.94
2023-05-08T06:28:57.546Z,71.47
2023-05-08T06:29:57.420Z,71.47
2023-05-08T06:30:57.530Z,71.36
2023-05-08T06:31:57.559Z,71.77
2023-05-08T06:32:57.474Z,71.87
2023-05-08T06:33:57.293Z,71.26
2023-05-08T06:34:57.366Z,71.87
2023-05-08T06:35:57.382Z,71.64
2023-05-08T06:36:57.674Z,71.02
2023-05-08T06:37:57.233Z,71.60
2023-05-08T06:38:57.295Z,70.79
2023-05-08T06:40:11.007Z,70.48
2023-05-08T06:40:58.274Z,70.68
2023-05-08T06:41:57.222Z,70.58
2023-05-08T06:42:57.261Z,70.07
2023-05-08T06:43:57.604Z,69.94
2023-05-08T06:44:57.206Z,69.74
2023-05-08T06:45:57.560Z,69.23
2023-05-08T06:46:57.378Z,69.70
2023-05-08T06:47:57.254Z,68.89
2023-05-08T06:48:57.287Z,69.09
2023-05-08T06:49:57.197Z,69.06
2023-05-08T06:50:57.179Z,69.17
2023-05-08T06:51:58.105Z,68.76
2023-05-08T06:52:57.193Z,68.32
2023-05-08T06:53:57.182Z,67.61
2023-05-08T06:54:57.170Z,67.58
2023-05-08T06:55:57.264Z,68.15
2023-05-08T06:56:57.349Z,67.72
2023-05-08T06:57:57.332Z,67.41
2023-05-08T06:59:04.880Z,66.80
2023-05-08T06:59:58.310Z,66.80
2023-05-08T07:00:56.955Z,66.40
2023-05-08T07:01:57.208Z,66.09
2023-05-08T07:02:57.017Z,65.39
2023-05-08T07:03:57.016Z,65.89
2023-05-08T07:04:57.022Z,66.06
2023-05-08T07:05:56.981Z,66.27
2023-05-08T07:06:56.936Z,66.67
2023-05-08T07:07:57.002Z,66.37
2023-05-08T07:08:56.808Z,66.33
2023-05-08T07:09:57.000Z,66.10
2023-05-08T07:10:56.844Z,64.58
2023-05-08T07:11:56.915Z,64.28
2023-05-08T07:12:56.890Z,64.96
2023-05-08T07:13:56.931Z,64.45
2023-05-08T07:14:57.976Z,63.84
2023-05-08T07:15:57.236Z,63.64
2023-05-08T07:16:56.786Z,64.35
2023-05-08T07:17:56.755Z,63.84
2023-05-08T07:18:56.695Z,63.44
2023-05-08T07:19:56.715Z,64.04
2023-05-08T07:20:56.707Z,64.42
2023-05-08T07:21:56.727Z,63.89
2023-05-08T07:22:56.912Z,63.28
2023-05-08T07:23:56.924Z,62.98
2023-05-08T07:24:56.687Z,61.96
2023-05-08T07:25:56.914Z,62.70
2023-05-08T07:26:56.699Z,63.13
2023-05-08T07:27:57.448Z,63.13
2023-05-08T07:28:56.629Z,63.61
2023-05-08T07:29:56.584Z,63.58
2023-05-08T07:30:56.627Z,63.18
2023-05-08T07:31:56.733Z,63.18
2023-05-08T07:32:56.695Z,63.58
2023-05-08T07:33:56.503Z,63.25
2023-05-08T07:34:56.701Z,63.18
2023-05-08T07:35:56.500Z,63.58
2023-05-08T07:36:56.472Z,63.76
2023-05-08T07:37:56.822Z,61.94
2023-05-08T07:38:56.497Z,61.36
2023-05-08T07:39:56.484Z,62.81
2023-05-08T07:40:56.722Z,63.64
2023-05-08T07:41:56.492Z,63.44
2023-05-08T07:42:56.454Z,62.73
2023-05-08T07:43:56.345Z,64.25
2023-05-08T07:44:56.526Z,64.22
2023-05-08T07:45:56.796Z,64.09
2023-05-08T07:46:56.405Z,63.38
2023-05-08T07:47:56.398Z,63.55
2023-05-08T07:48:57.017Z,62.11
2023-05-08T07:49:56.295Z,61.40
2023-05-08T07:50:56.425Z,63.39
2023-05-08T07:51:56.445Z,62.76
2023-05-08T07:52:56.353Z,62.15
2023-05-08T07:53:56.438Z,61.41
2023-05-08T07:54:56.566Z,61.41
2023-05-08T07:55:56.289Z,60.58
2023-05-08T07:56:56.109Z,60.48
2023-05-08T07:57:56.434Z,60.41
2023-05-08T07:58:56.122Z,60.03
2023-05-08T07:59:56.470Z,61.80
2023-05-08T08:00:56.102Z,63.09
2023-05-08T08:01:56.266Z,62.59
2023-05-08T08:02:56.304Z,62.99
2023-05-08T08:03:56.476Z,61.32
2023-05-08T08:04:56.086Z,60.21
2023-05-08T08:05:56.090Z,61.08
2023-05-08T08:06:56.235Z,60.88
2023-05-08T08:07:56.335Z,61.69
2023-05-08T08:08:56.030Z,60.12
2023-05-08T08:09:55.942Z,60.29
2023-05-08T08:10:56.057Z,59.16
2023-05-08T08:11:56.148Z,57.95
2023-05-08T08:12:56.037Z,58.05
2023-05-08T08:13:56.089Z,58.18
2023-05-08T08:14:55.949Z,58.31
2023-05-08T08:15:56.145Z,58.51
2023-05-08T08:16:55.914Z,59.19
2023-05-08T08:17:56.197Z,58.07
2023-05-08T08:18:56.078Z,59.06
2023-05-08T08:19:56.157Z,58.18
2023-05-08T08:20:56.013Z,59.62
2023-05-08T08:21:55.887Z,57.60
2023-05-08T08:22:55.875Z,59.28
2023-05-08T08:23:55.908Z,58.01
2023-05-08T08:24:56.254Z,59.82
2023-05-08T08:25:56.053Z,59.52
2023-05-08T08:26:55.839Z,60.02
2023-05-08T08:27:55.843Z,59.82
2023-05-08T08:28:55.872Z,60.35
2023-05-08T08:30:08.267Z,60.72
2023-05-08T08:30:56.808Z,59.76
2023-05-08T08:31:55.940Z,58.20
2023-05-08T08:32:55.780Z,58.37
2023-05-08T08:33:55.789Z,58.22
2023-05-08T08:34:55.694Z,55.43
2023-05-08T08:35:55.659Z,57.17
2023-05-08T08:36:55.719Z,56.46
2023-05-08T08:37:55.568Z,56.66
2023-05-08T08:38:55.663Z,55.26
2023-05-08T08:39:55.689Z,55.68
2023-05-08T08:40:55.578Z,55.99
2023-05-08T08:41:55.718Z,57.06
2023-05-08T08:42:56.952Z,56.06
2023-05-08T08:43:55.679Z,56.56
2023-05-08T08:44:55.680Z,55.86
2023-05-08T08:45:55.600Z,56.56
2023-05-08T08:46:55.566Z,54.85
2023-05-08T08:47:55.582Z,55.76
2023-05-08T08:48:55.722Z,55.66
2023-05-08T08:49:55.600Z,57.24
2023-05-08T08:50:55.787Z,56.30
2023-05-08T08:51:55.681Z,56.88
2023-05-08T08:52:55.564Z,53.57
2023-05-08T08:53:55.894Z,55.20
2023-05-08T08:54:55.363Z,55.83
2023-05-08T08:55:55.725Z,56.84
2023-05-08T08:56:55.605Z,57.01
2023-05-08T08:57:55.419Z,56.51
2023-05-08T08:58:55.303Z,56.81
2023-05-08T08:59:55.315Z,57.39
2023-05-08T09:00:55.672Z,55.35
2023-05-08T09:01:55.241Z,55.43
2023-05-08T09:02:55.681Z,54.22
2023-05-08T09:03:55.447Z,53.02
2023-05-08T09:04:55.244Z,54.10
2023-05-08T09:05:55.498Z,54.50
2023-05-08T09:06:55.296Z,54.30
2023-05-08T09:07:55.146Z,54.20
2023-05-08T09:08:55.178Z,53.67
2023-05-08T09:09:55.150Z,52.57
2023-05-08T09:10:55.096Z,53.37
2023-05-08T09:11:55.193Z,53.14
2023-05-08T09:12:55.073Z,51.67
2023-05-08T09:13:55.199Z,51.67
2023-05-08T09:14:55.177Z,52.47
2023-05-08T09:15:55.075Z,52.37
2023-05-08T09:16:55.179Z,50.94
2023-05-08T09:17:55.094Z,52.14
2023-05-08T09:18:55.082Z,50.94
2023-05-08T09:19:55.732Z,51.17
2023-05-08T09:20:54.973Z,51.77
2023-05-08T09:21:55.076Z,53.12
2023-05-08T09:22:55.051Z,52.09
2023-05-08T09:23:55.022Z,52.87
2023-05-08T09:24:55.093Z,49.74
2023-05-08T09:25:55.147Z,49.55
2023-05-08T09:26:55.090Z,51.25
2023-05-08T09:27:55.165Z,50.45
2023-05-08T09:28:54.956Z,50.17
2023-05-08T09:29:54.871Z,50.94
2023-05-08T09:30:55.058Z,51.57
2023-05-08T09:31:54.971Z,52.27
2023-05-08T09:32:54.878Z,52.69
2023-05-08T09:33:54.775Z,51.51
2023-05-08T09:34:54.822Z,51.72
2023-05-08T09:35:54.737Z,53.39
2023-05-08T09:36:54.774Z,50.87
2023-05-08T09:37:57.184Z,50.84
2023-05-08T09:38:54.750Z,50.54
2023-05-08T09:39:54.767Z,51.42
2023-05-08T09:40:54.870Z,49.90
2023-05-08T09:41:54.655Z,49.77
2023-05-08T09:42:54.753Z,49.09
2023-05-08T09:43:54.662Z,49.55
2023-05-08T09:44:54.755Z,49.44
2023-05-08T09:45:54.761Z,48.82
2023-05-08T09:46:54.638Z,47.71
2023-05-08T09:47:54.640Z,49.87
2023-05-08T09:48:54.685Z,48.93
2023-05-08T09:49:54.747Z,48.41
2023-05-08T09:50:54.554Z,46.89
2023-05-08T09:51:54.615Z,46.72
2023-05-08T09:52:54.567Z,45.84
2023-05-08T09:53:54.574Z,47.53
2023-05-08T09:54:54.641Z,46.14
2023-05-08T09:55:54.787Z,46.31
2023-05-08T09:56:54.795Z,45.42
2023-05-08T09:57:54.570Z,45.94
2023-05-08T09:58:54.692Z,46.62
2023-05-08T09:59:54.448Z,48.87
2023-05-08T10:00:54.496Z,49.62
2023-05-08T10:01:54.414Z,50.87
2023-05-08T10:02:54.419Z,51.29
2023-05-08T10:03:54.456Z,52.42
2023-05-08T10:04:55.391Z,53.82
2023-05-08T10:05:54.507Z,54.90
2023-05-08T10:06:56.543Z,52.69
2023-05-08T10:07:54.377Z,50.31
2023-05-08T10:08:54.354Z,51.06
2023-05-08T10:09:54.516Z,52.67
2023-05-08T10:10:54.363Z,53.90
2023-05-08T10:11:54.378Z,53.90
2023-05-08T10:12:54.303Z,54.33
2023-05-08T10:13:54.407Z,56.36
2023-05-08T10:14:54.226Z,56.16
2023-05-08T10:15:54.273Z,56.69
2023-05-08T10:16:54.314Z,55.23
2023-05-08T10:17:54.207Z,58.55
2023-05-08T10:18:54.151Z,58.98
2023-05-08T10:19:54.218Z,57.81
2023-05-08T10:20:54.264Z,58.61
2023-05-08T10:21:54.175Z,59.22
2023-05-08T10:22:54.096Z,58.23
2023-05-08T10:23:54.304Z,59.24
2023-05-08T10:24:55.344Z,59.04
2023-05-08T10:25:54.997Z,58.64
2023-05-08T10:27:05.652Z,59.95
2023-05-08T10:27:55.259Z,58.56
2023-05-08T10:28:54.851Z,59.07
2023-05-08T10:29:54.157Z,60.48
2023-05-08T10:30:54.105Z,59.67
2023-05-08T10:31:54.474Z,59.95
2023-05-08T10:32:54.075Z,58.54
2023-05-08T10:33:54.663Z,57.60
2023-05-08T10:34:53.980Z,57.95
2023-05-08T10:35:54.173Z,56.21
2023-05-08T10:36:54.282Z,54.60
2023-05-08T10:37:53.972Z,54.48
2023-05-08T10:38:53.913Z,54.10
2023-05-08T10:39:53.943Z,55.31
2023-05-08T10:40:54.028Z,55.88
2023-05-08T10:41:53.869Z,56.16
2023-05-08T10:42:54.360Z,54.72
2023-05-08T10:43:54.251Z,53.67
2023-05-08T10:44:53.903Z,50.79
2023-05-08T10:45:53.964Z,49.34
2023-05-08T10:46:53.794Z,49.37
2023-05-08T10:47:54.082Z,48.75
2023-05-08T10:48:53.889Z,48.87
2023-05-08T10:49:53.846Z,48.61
2023-05-08T10:50:53.838Z,49.34
2023-05-08T10:51:53.887Z,49.40
2023-05-08T10:52:54.046Z,50.45
2023-05-08T10:53:53.842Z,47.50
2023-05-08T10:54:53.891Z,46.48
2023-05-08T10:55:54.551Z,45.24
2023-05-08T10:56:54.361Z,45.40
2023-05-08T10:57:54.727Z,44.88
2023-05-08T10:58:54.770Z,48.04
2023-05-08T10:59:54.638Z,45.75
2023-05-08T11:00:53.750Z,43.59
2023-05-08T11:01:53.806Z,43.25
2023-05-08T11:02:53.682Z,45.47
2023-05-08T11:03:54.278Z,45.36
2023-05-08T11:04:53.647Z,45.14
2023-05-08T11:05:53.588Z,44.84
2023-05-08T11:06:54.061Z,44.54
2023-05-08T11:07:54.096Z,42.55
2023-05-08T11:08:54.769Z,43.45
2023-05-08T11:09:55.248Z,45.22
2023-05-08T11:11:22.015Z,44.28
2023-05-08T11:11:53.950Z,43.68
2023-05-08T11:12:58.396Z,41.89
2023-05-08T11:13:55.589Z,42.09
2023-05-08T11:14:54.176Z,42.49
2023-05-08T11:15:56.911Z,44.58
2023-05-08T11:16:58.551Z,42.11
2023-05-08T11:17:54.125Z,43.23
2023-05-08T11:18:53.650Z,44.40
2023-05-08T11:19:53.648Z,43.01
2023-05-08T11:20:53.744Z,43.11
2023-05-08T11:21:53.602Z,41.50
2023-05-08T11:23:01.631Z,39.80
2023-05-08T11:23:54.396Z,41.39
2023-05-08T11:25:24.248Z,40.80
2023-05-08T11:25:54.472Z,41.89
2023-05-08T11:26:55.120Z,42.01
2023-05-08T11:28:31.799Z,41.63
2023-05-08T11:29:15.857Z,42.23
2023-05-08T11:29:58.155Z,41.02
2023-05-08T11:30:53.546Z,42.39
2023-05-08T11:31:53.780Z,42.07
2023-05-08T11:32:53.630Z,40.56
2023-05-08T11:33:53.431Z,44.12
2023-05-08T11:34:53.896Z,42.33
2023-05-08T11:35:54.380Z,41.67
2023-05-08T11:36:54.016Z,43.59
2023-05-08T11:37:54.481Z,42.69
2023-05-08T11:38:55.260Z,40.72
2023-05-08T11:39:53.321Z,43.51
2023-05-08T11:40:54.119Z,43.68
2023-05-08T11:41:53.976Z,43.24
2023-05-08T11:42:53.419Z,42.63
2023-05-08T11:43:53.630Z,38.77
2023-05-08T11:44:53.076Z,39.18
2023-05-08T11:45:53.436Z,40.06
2023-05-08T11:46:53.241Z,40.44
2023-05-08T11:47:53.142Z,39.63
2023-05-08T11:48:53.759Z,39.65
2023-05-08T11:49:54.187Z,39.15
2023-05-08T11:50:53.058Z,38.85
2023-05-08T11:51:53.104Z,38.77
2023-05-08T11:52:53.005Z,40.30
2023-05-08T11:53:53.252Z,40.50
2023-05-08T11:54:52.971Z,41.28
2023-05-08T11:55:52.986Z,40.88
2023-05-08T11:56:53.803Z,39.90
2023-05-08T11:57:53.252Z,40.70
2023-05-08T11:58:52.846Z,39.70
2023-05-08T11:59:53.212Z,40.36
2023-05-08T12:00:53.033Z,40.26
2023-05-08T12:02:53.210Z,41.09
2023-05-08T12:03:53.723Z,41.06
2023-05-08T12:04:52.795Z,39.07
2023-05-08T12:05:52.809Z,39.07
2023-05-08T12:06:53.412Z,37.79
2023-05-08T12:07:52.964Z,38.96
2023-05-08T12:08:53.014Z,37.07
2023-05-08T12:09:52.732Z,37.67
2023-05-08T12:10:53.490Z,38.85
2023-05-08T12:11:52.745Z,37.75
2023-05-08T12:12:52.835Z,38.54
2023-05-08T12:13:52.737Z,39.99
2023-05-08T12:14:52.626Z,38.86
2023-05-08T12:15:52.741Z,36.18
2023-05-08T12:16:53.131Z,36.27
2023-05-08T12:17:53.436Z,34.83
2023-05-08T12:18:52.792Z,36.15
2023-05-08T12:19:53.948Z,37.57
2023-05-08T12:20:52.828Z,37.32
2023-05-08T12:21:52.666Z,39.39
2023-05-08T12:22:53.095Z,41.03
2023-05-08T12:23:52.729Z,41.12
2023-05-08T12:24:52.883Z,40.84
2023-05-08T12:25:54.972Z,42.85
2023-05-08T12:26:52.678Z,41.88
2023-05-08T12:27:52.564Z,41.38
2023-05-08T12:28:52.444Z,41.52
2023-05-08T12:29:52.638Z,41.95
2023-05-08T12:30:53.349Z,39.71
2023-05-08T12:31:53.247Z,37.60
2023-05-08T12:32:52.595Z,37.51
2023-05-08T12:33:52.481Z,39.06
2023-05-08T12:34:52.412Z,39.31
2023-05-08T12:35:52.484Z,37.02
2023-05-08T12:36:52.391Z,37.51
2023-05-08T12:37:52.383Z,36.90
2023-05-08T12:38:52.671Z,36.15
2023-05-08T12:39:52.491Z,36.86
2023-05-08T12:40:52.572Z,39.04
2023-05-08T12:41:52.598Z,38.34
2023-05-08T12:42:52.665Z,39.63
2023-05-08T12:43:52.446Z,39.91
2023-05-08T12:44:52.225Z,37.73
2023-05-08T12:45:52.801Z,36.86
2023-05-08T12:46:53.253Z,38.24
2023-05-08T12:47:52.676Z,38.44
2023-05-08T12:48:52.188Z,38.84
2023-05-08T12:49:52.166Z,38.24
2023-05-08T12:50:52.420Z,38.05
2023-05-08T12:51:52.693Z,40.11
2023-05-08T12:52:52.269Z,37.55
2023-05-08T12:53:52.144Z,37.55
2023-05-08T12:54:52.655Z,37.85
2023-05-08T12:55:52.578Z,40.20
2023-05-08T12:56:52.089Z,38.42
2023-05-08T12:57:52.172Z,37.53
2023-05-08T12:58:52.557Z,38.72
2023-05-08T12:59:52.044Z,38.24
2023-05-08T13:00:52.164Z,37.65
2023-05-08T13:01:52.270Z,37.47
2023-05-08T13:02:52.033Z,37.35
2023-05-08T13:04:01.085Z,37.26
2023-05-08T13:04:53.068Z,39.81
2023-05-08T13:05:52.968Z,38.80
2023-05-08T13:06:51.952Z,37.79
2023-05-08T13:07:51.920Z,39.43
2023-05-08T13:08:52.062Z,37.24
2023-05-08T13:09:51.970Z,38.90
2023-05-08T13:10:52.161Z,37.30
2023-05-08T13:11:52.085Z,37.78
2023-05-08T13:12:52.228Z,36.68
2023-05-08T13:13:52.118Z,35.50
2023-05-08T13:14:51.975Z,36.78
2023-05-08T13:15:51.978Z,35.31
2023-05-08T13:16:52.039Z,34.56
2023-05-08T13:17:51.939Z,35.35
2023-05-08T13:18:51.789Z,37.15
2023-05-08T13:19:51.759Z,36.25
2023-05-08T13:20:51.894Z,35.49
2023-05-08T13:21:51.752Z,35.40
2023-05-08T13:22:51.763Z,35.99
2023-05-08T13:23:51.731Z,38.47
2023-05-08T13:24:51.810Z,37.26
2023-05-08T13:25:51.935Z,36.55
2023-05-08T13:26:51.692Z,35.37
2023-05-08T13:27:51.890Z,35.78
2023-05-08T13:28:54.563Z,36.29
2023-05-08T13:29:51.720Z,36.31
2023-05-08T13:30:51.690Z,36.44
2023-05-08T13:31:51.645Z,38.07
2023-05-08T13:32:51.829Z,38.30
2023-05-08T13:33:51.604Z,38.22
2023-05-08T13:34:53.106Z,39.95
2023-05-08T13:35:51.574Z,40.18
2023-05-08T13:36:51.676Z,41.69
2023-05-08T13:37:51.529Z,40.94
2023-05-08T13:38:51.539Z,40.76
2023-05-08T13:39:52.077Z,41.80
2023-05-08T13:40:51.468Z,41.60
2023-05-08T13:41:51.556Z,41.58
2023-05-08T13:42:51.471Z,42.03
2023-05-08T13:43:51.433Z,41.22
2023-05-08T13:44:51.439Z,40.16
2023-05-08T13:45:51.585Z,38.24
2023-05-08T13:46:51.445Z,38.96
2023-05-08T13:47:51.571Z,36.54
2023-05-08T13:48:51.421Z,35.93
2023-05-08T13:49:51.365Z,36.62
2023-05-08T13:50:51.471Z,36.11
2023-05-08T13:51:56.965Z,35.80
2023-05-08T13:52:54.704Z,35.49
2023-05-08T13:53:51.334Z,35.27
2023-05-08T13:54:51.327Z,36.16
2023-05-08T13:55:51.327Z,35.35
2023-05-08T13:56:51.369Z,34.94
2023-05-08T13:57:51.338Z,35.41
2023-05-08T13:58:51.375Z,35.91
2023-05-08T13:59:51.337Z,34.31
2023-05-08T14:00:51.412Z,33.82
2023-05-08T14:01:51.366Z,33.06
2023-05-08T14:02:53.113Z,34.84
2023-05-08T14:03:51.366Z,34.74
2023-05-08T14:04:51.215Z,34.03
2023-05-08T14:05:51.194Z,34.01
2023-05-08T14:06:51.197Z,33.94
2023-05-08T14:07:51.447Z,34.43
2023-05-08T14:08:54.433Z,35.10
2023-05-08T14:09:51.222Z,34.03
2023-05-08T14:10:51.244Z,33.67
2023-05-08T14:11:51.342Z,33.80
2023-05-08T14:12:51.125Z,35.99
2023-05-08T14:13:51.119Z,35.00
2023-05-08T14:14:51.229Z,35.00
2023-05-08T14:15:51.421Z,34.39
2023-05-08T14:16:51.127Z,34.39
2023-05-08T14:17:51.131Z,34.67
2023-05-08T14:18:51.019Z,34.48
2023-05-08T14:19:51.369Z,33.98
2023-05-08T14:20:57.469Z,34.66
2023-05-08T14:21:51.972Z,34.66
2023-05-08T14:22:53.831Z,34.66
2023-05-08T14:23:51.138Z,34.82
2023-05-08T14:24:50.986Z,33.04
2023-05-08T14:25:51.022Z,34.34
2023-05-08T14:26:51.276Z,34.36
2023-05-08T14:27:50.998Z,34.28
2023-05-08T14:28:51.578Z,34.22
2023-05-08T14:29:51.094Z,33.24
2023-05-08T14:30:51.000Z,34.22
2023-05-08T14:31:50.857Z,34.00
2023-05-08T14:32:51.176Z,34.30